sensor_id;sensor_type;location;lat;lon;timestamp;pressure;altitude;pressure_sealevel;temperature;humidity
13954;BME280;7049;49.444;8.522;2023-05-08T00:02:06;-11160.47;;;-3.47;100.00
13954;BME280;7049;49.444;8.522;2023-05-08T00:07:08;-11160.47;;;-3.47;100.00
13954;BME280;7049;49.444;8.522;2023-05-08T00:12:10;-11160.47;;;-3.47;100.00
13954;BME280;7049;49.444;8.522;2023-05-08T00:17:12;-11160.47;;;-3.47;100.00
13954;BME280;7049;49.444;8.522;2023-05-08T00:22:14;-11160.47;;;-3.47;100.00
13954;BME280;7049;49.444;8.522;2023-05-08T00:27:15;-11160.47;;;-3.47;100.00
13954;BME280;7049;49.444;8.522;2023-05-08T00:32:18;-11160.47;;;-3.47;100.00
13954;BME280;7049;49.444;8.522;2023-05-08T00:37:19;-11160.47;;;-3.47;100.00
13954;BME280;7049;49.444;8.522;2023-05-08T00:42:21;-11160.47;;;-3.47;100.00
13954;BME280;7049;49.444;8.522;2023-05-08T00:47:24;-11160.47;;;-3.47;100.00
13954;BME280;7049;49.444;8.522;2023-05-08T00:52:27;-11160.47;;;-3.47;100.00
13954;BME280;7049;49.444;8.522;2023-05-08T00:57:31;-11160.47;;;-3.47;100.00
13954;BME280;7049;49.444;8.522;2023-05-08T01:02:36;-11160.47;;;-3.47;100.00
13954;BME280;7049;49.444;8.522;2023-05-08T01:07:37;-11160.47;;;-3.47;100.00
13954;BME280;7049;49.444;8.522;2023-05-08T01:12:47;-11160.47;;;-3.47;100.00
13954;BME280;7049;49.444;8.522;2023-05-08T01:18:01;-11160.47;;;-3.47;100.00
13954;BME280;7049;49.444;8.522;2023-05-08T01:23:40;-11160.47;;;-3.47;100.00
13954;BME280;7049;49.444;8.522;2023-05-08T01:29:11;-11160.47;;;-3.47;100.00
13954;BME280;7049;49.444;8.522;2023-05-08T01:34:22;-11160.47;;;-3.47;100.00
13954;BME280;7049;49.444;8.522;2023-05-08T01:39:31;-11160.47;;;-3.47;100.00
13954;BME280;7049;49.444;8.522;2023-05-08T01:44:39;-11160.47;;;-3.47;100.00
13954;BME280;7049;49.444;8.522;2023-05-08T01:49:44;-11160.47;;;-3.47;100.00
13954;BME280;7049;49.444;8.522;2023-05-08T01:54:51;-11160.47;;;-3.47;100.00
13954;BME280;7049;49.444;8.522;2023-05-08T01:59:55;-11160.47;;;-3.47;100.00
13954;BME280;7049;49.444;8.522;2023-05-08T02:05:01;-11160.47;;;-3.47;100.00
13954;BME280;7049;49.444;8.522;2023-05-08T02:10:05;-11160.47;;;-3.47;100.00
13954;BME280;7049;49.444;8.522;2023-05-08T02:15:08;-11160.47;;;-3.47;100.00
13954;BME280;7049;49.444;8.522;2023-05-08T02:20:14;-11160.47;;;-3.47;100.00
13954;BME280;7049;49.444;8.522;2023-05-08T02:25:17;-11160.47;;;-3.47;100.00
13954;BME280;7049;49.444;8.522;2023-05-08T02:30:21;-11160.47;;;-3.47;100.00
13954;BME280;7049;49.444;8.522;2023-05-08T02:35:26;-11160.47;;;-3.47;100.00
13954;BME280;7049;49.444;8.522;2023-05-08T02:40:34;-11160.47;;;-3.47;100.00
13954;BME280;7049;49.444;8.522;2023-05-08T02:45:39;-11160.47;;;-3.47;100.00
13954;BME280;7049;49.444;8.522;2023-05-08T02:50:47;-11160.47;;;-3.47;100.00
13954;BME280;7049;49.444;8.522;2023-05-08T02:56:02;-11160.47;;;-3.47;100.00
13954;BME280;7049;49.444;8.522;2023-05-08T03:01:08;-11160.47;;;-3.47;100.00
13954;BME280;7049;49.444;8.522;2023-05-08T03:06:16;-11160.47;;;-3.47;100.00
13954;BME280;7049;49.444;8.522;2023-05-08T03:11:20;-11160.47;;;-3.47;100.00
13954;BME280;7049;49.444;8.522;2023-05-08T03:16:27;-11160.47;;;-3.47;100.00
13954;BME280;7049;49.444;8.522;2023-05-08T03:21:34;-11160.47;;;-3.47;100.00
13954;BME280;7049;49.444;8.522;2023-05-08T03:26:40;-11160.47;;;-3.47;100.00
13954;BME280;7049;49.444;8.522;2023-05-08T03:31:43;-11160.47;;;-3.47;100.00
13954;BME280;7049;49.444;8.522;2023-05-08T03:36:46;-11160.47;;;-3.47;100.00
13954;BME280;7049;49.444;8.522;2023-05-08T03:41:48;-11160.47;;;-3.47;100.00
13954;BME280;7049;49.444;8.522;2023-05-08T03:46:51;-11160.47;;;-3.47;100.00
13954;BME280;7049;49.444;8.522;2023-05-08T03:51:57;-11160.47;;;-3.47;100.00
13954;BME280;7049;49.444;8.522;2023-05-08T03:56:59;-11160.47;;;-3.47;100.00
13954;BME280;7049;49.444;8.522;2023-05-08T04:02:10;-11160.47;;;-3.47;100.00
13954;BME280;7049;49.444;8.522;2023-05-08T04:07:19;-11160.47;;;-3.47;100.00
13954;BME280;7049;49.444;8.522;2023-05-08T04:12:28;-11160.47;;;-3.47;100.00
13954;BME280;7049;49.444;8.522;2023-05-08T04:17:36;-11160.47;;;-3.47;100.00
13954;BME280;7049;49.444;8.522;2023-05-08T04:22:41;-11160.47;;;-3.47;100.00
13954;BME280;7049;49.444;8.522;2023-05-08T04:27:44;-11160.47;;;-3.47;100.00
13954;BME280;7049;49.444;8.522;2023-05-08T04:32:46;-11160.47;;;-3.47;100.00
13954;BME280;7049;49.444;8.522;2023-05-08T04:37:49;-11160.47;;;-3.47;100.00
13954;BME280;7049;49.444;8.522;2023-05-08T04:42:51;-11160.47;;;-3.47;100.00
13954;BME280;7049;49.444;8.522;2023-05-08T04:47:52;-11160.47;;;-3.47;100.00
13954;BME280;7049;49.444;8.522;2023-05-08T04:52:55;-11160.47;;;-3.47;100.00
13954;BME280;7049;49.444;8.522;2023-05-08T04:57:56;-11160.47;;;-3.47;100.00
13954;BME280;7049;49.444;8.522;2023-05-08T05:02:58;-11160.47;;;-3.47;100.00
13954;BME280;7049;49.444;8.522;2023-05-08T05:08:01;-11160.47;;;-3.47;100.00
13954;BME280;7049;49.444;8.522;2023-05-08T05:13:03;-11160.47;;;-3.47;100.00
13954;BME280;7049;49.444;8.522;2023-05-08T05:18:04;-11160.47;;;-3.47;100.00
13954;BME280;7049;49.444;8.522;2023-05-08T05:23:10;-11160.47;;;-3.47;100.00
13954;BME280;7049;49.444;8.522;2023-05-08T05:28:11;-11160.47;;;-3.47;100.00
13954;BME280;7049;49.444;8.522;2023-05-08T05:33:13;-11160.47;;;-3.47;100.00
13954;BME280;7049;49.444;8.522;2023-05-08T05:38:16;-11160.47;;;-3.47;100.00
13954;BME280;7049;49.444;8.522;2023-05-08T05:43:17;-11160.47;;;-3.47;100.00
13954;BME280;7049;49.444;8.522;2023-05-08T05:48:19;-11160.47;;;-3.47;100.00
13954;BME280;7049;49.444;8.522;2023-05-08T05:53:21;-11160.47;;;-3.47;100.00
13954;BME280;7049;49.444;8.522;2023-05-08T05:58:23;-11160.47;;;-3.47;100.00
13954;BME280;7049;49.444;8.522;2023-05-08T06:03:24;-11160.47;;;-3.47;100.00
13954;BME280;7049;49.444;8.522;2023-05-08T06:08:27;-11160.47;;;-3.47;100.00
13954;BME280;7049;49.444;8.522;2023-05-08T06:13:29;-11160.47;;;-3.47;100.00
13954;BME280;7049;49.444;8.522;2023-05-08T06:18:30;-11160.47;;;-3.47;100.00
13954;BME280;7049;49.444;8.522;2023-05-08T06:23:36;-11160.47;;;-3.47;100.00
13954;BME280;7049;49.444;8.522;2023-05-08T06:28:37;-11160.47;;;-3.47;100.00
13954;BME280;7049;49.444;8.522;2023-05-08T06:33:39;-11160.47;;;-3.47;100.00
13954;BME280;7049;49.444;8.522;2023-05-08T06:38:42;-11160.47;;;-3.47;100.00
13954;BME280;7049;49.444;8.522;2023-05-08T06:43:43;-11160.47;;;-3.47;100.00
13954;BME280;7049;49.444;8.522;2023-05-08T06:48:44;-11160.47;;;-3.47;100.00
13954;BME280;7049;49.444;8.522;2023-05-08T06:53:47;-11160.47;;;-3.47;100.00
13954;BME280;7049;49.444;8.522;2023-05-08T06:58:49;-11160.47;;;-3.47;100.00
13954;BME280;7049;49.444;8.522;2023-05-08T07:03:50;-11160.47;;;-3.47;100.00
13954;BME280;7049;49.444;8.522;2023-05-08T07:08:53;-11160.47;;;-3.47;100.00
13954;BME280;7049;49.444;8.522;2023-05-08T07:13:55;-11160.47;;;-3.47;100.00
13954;BME280;7049;49.444;8.522;2023-05-08T07:18:56;-11160.47;;;-3.47;100.00
13954;BME280;7049;49.444;8.522;2023-05-08T07:23:59;-11160.47;;;-3.47;100.00
13954;BME280;7049;49.444;8.522;2023-05-08T07:29:00;-11160.47;;;-3.47;100.00
13954;BME280;7049;49.444;8.522;2023-05-08T07:34:02;-11160.47;;;-3.47;100.00
13954;BME280;7049;49.444;8.522;2023-05-08T07:39:06;-11160.47;;;-3.47;100.00
13954;BME280;7049;49.444;8.522;2023-05-08T07:44:07;-11160.47;;;-3.47;100.00
13954;BME280;7049;49.444;8.522;2023-05-08T07:49:08;-11160.47;;;-3.47;100.00
13954;BME280;7049;49.444;8.522;2023-05-08T07:54:11;-11160.47;;;-3.47;100.00
13954;BME280;7049;49.444;8.522;2023-05-08T07:59:13;-11160.47;;;-3.47;100.00
13954;BME280;7049;49.444;8.522;2023-05-08T08:04:14;-11160.47;;;-3.47;100.00
13954;BME280;7049;49.444;8.522;2023-05-08T08:09:17;-11160.47;;;-3.47;100.00
13954;BME280;7049;49.444;8.522;2023-05-08T08:14:19;-11160.47;;;-3.47;100.00
13954;BME280;7049;49.444;8.522;2023-05-08T08:19:20;-11160.47;;;-3.47;100.00
13954;BME280;7049;49.444;8.522;2023-05-08T08:24:23;-11160.47;;;-3.47;100.00
13954;BME280;7049;49.444;8.522;2023-05-08T08:29:24;-11160.47;;;-3.47;100.00
13954;BME280;7049;49.444;8.522;2023-05-08T08:34:26;-11160.47;;;-3.47;100.00
13954;BME280;7049;49.444;8.522;2023-05-08T08:39:32;-11160.47;;;-3.47;100.00
13954;BME280;7049;49.444;8.522;2023-05-08T08:44:34;-11160.47;;;-3.47;100.00
13954;BME280;7049;49.444;8.522;2023-05-08T08:49:42;-11160.47;;;-3.47;100.00
13954;BME280;7049;49.444;8.522;2023-05-08T08:54:46;-11160.47;;;-3.47;100.00
13954;BME280;7049;49.444;8.522;2023-05-08T08:59:51;-11160.47;;;-3.47;100.00
13954;BME280;7049;49.444;8.522;2023-05-08T09:04:54;-11160.47;;;-3.47;100.00
13954;BME280;7049;49.444;8.522;2023-05-08T09:09:58;-11160.47;;;-3.47;100.00
13954;BME280;7049;49.444;8.522;2023-05-08T09:15:01;-11160.47;;;-3.47;100.00
13954;BME280;7049;49.444;8.522;2023-05-08T09:20:07;-11160.47;;;-3.47;100.00
13954;BME280;7049;49.444;8.522;2023-05-08T09:25:18;-11160.47;;;-3.47;99.63
13954;BME280;7049;49.444;8.522;2023-05-08T09:30:21;-11160.47;;;-3.47;100.00
13954;BME280;7049;49.444;8.522;2023-05-08T09:35:34;-11160.47;;;-3.47;100.00
13954;BME280;7049;49.444;8.522;2023-05-08T09:40:38;-11160.47;;;-3.47;99.66
13954;BME280;7049;49.444;8.522;2023-05-08T09:45:41;-11160.47;;;-3.47;97.94
13954;BME280;7049;49.444;8.522;2023-05-08T09:50:43;-11160.47;;;-3.47;97.91
13954;BME280;7049;49.444;8.522;2023-05-08T09:55:47;-11160.47;;;-3.47;97.00
13954;BME280;7049;49.444;8.522;2023-05-08T10:00:49;-11160.47;;;-3.47;96.75
13954;BME280;7049;49.444;8.522;2023-05-08T10:05:52;-11160.47;;;-3.47;97.34
13954;BME280;7049;49.444;8.522;2023-05-08T10:11:12;-11160.47;;;-3.47;97.09
13954;BME280;7049;49.444;8.522;2023-05-08T10:16:17;-11160.47;;;-3.47;97.34
13954;BME280;7049;49.444;8.522;2023-05-08T10:21:24;-11160.47;;;-3.47;97.95
13954;BME280;7049;49.444;8.522;2023-05-08T10:26:42;-11160.47;;;-3.47;98.04
13954;BME280;7049;49.444;8.522;2023-05-08T10:31:45;-11160.47;;;-3.47;97.97
13954;BME280;7049;49.444;8.522;2023-05-08T10:36:54;-11160.47;;;-3.47;97.67
13954;BME280;7049;49.444;8.522;2023-05-08T10:42:04;-11160.47;;;-3.47;97.30
13954;BME280;7049;49.444;8.522;2023-05-08T10:47:13;-11160.47;;;-3.47;97.35
13954;BME280;7049;49.444;8.522;2023-05-08T10:52:20;-11160.47;;;-3.47;97.58
13954;BME280;7049;49.444;8.522;2023-05-08T10:57:25;-11160.47;;;-3.47;97.83
13954;BME280;7049;49.444;8.522;2023-05-08T11:02:28;-11160.47;;;-3.47;98.07
13954;BME280;7049;49.444;8.522;2023-05-08T11:07:52;-11160.47;;;-3.47;98.41
13954;BME280;7049;49.444;8.522;2023-05-08T11:12:55;-11160.47;;;-3.47;98.00
13954;BME280;7049;49.444;8.522;2023-05-08T11:17:57;-11160.47;;;-3.47;97.80
13954;BME280;7049;49.444;8.522;2023-05-08T11:23:20;-11160.47;;;-3.47;97.51
13954;BME280;7049;49.444;8.522;2023-05-08T11:28:23;-11160.47;;;-3.47;96.85
13954;BME280;7049;49.444;8.522;2023-05-08T11:33:29;-11160.47;;;-3.47;96.56
13954;BME280;7049;49.444;8.522;2023-05-08T11:38:33;-11160.47;;;-3.47;96.28
13954;BME280;7049;49.444;8.522;2023-05-08T11:44:01;-11160.47;;;-3.47;96.07
13954;BME280;7049;49.444;8.522;2023-05-08T11:49:13;-11160.47;;;-3.47;95.91
13954;BME280;7049;49.444;8.522;2023-05-08T11:54:17;-11160.47;;;-3.47;96.41
13954;BME280;7049;49.444;8.522;2023-05-08T11:59:20;-11160.47;;;-3.47;96.42
13954;BME280;7049;49.444;8.522;2023-05-08T12:04:22;-11160.47;;;-3.47;96.36
13954;BME280;7049;49.444;8.522;2023-05-08T12:09:25;-11160.47;;;-3.47;96.06
13954;BME280;7049;49.444;8.522;2023-05-08T12:14:29;-11160.47;;;-3.47;95.77
13954;BME280;7049;49.444;8.522;2023-05-08T12:19:30;-11160.47;;;-3.47;95.25
13954;BME280;7049;49.444;8.522;2023-05-08T12:24:31;-11160.47;;;-3.47;94.13
13954;BME280;7049;49.444;8.522;2023-05-08T12:29:35;-11160.47;;;-3.47;93.56
13954;BME280;7049;49.444;8.522;2023-05-08T12:34:37;-11160.47;;;-3.47;93.09
13954;BME280;7049;49.444;8.522;2023-05-08T12:39:43;-11160.47;;;-3.47;92.87
13954;BME280;7049;49.444;8.522;2023-05-08T12:44:50;-11160.47;;;-3.47;92.81
13954;BME280;7049;49.444;8.522;2023-05-08T12:49:56;-11160.47;;;-3.47;93.05
13954;BME280;7049;49.444;8.522;2023-05-08T12:54:58;-11160.47;;;-3.47;93.07
13954;BME280;7049;49.444;8.522;2023-05-08T13:00:03;-11160.47;;;-3.47;93.04
13954;BME280;7049;49.444;8.522;2023-05-08T13:05:05;-11160.47;;;-3.47;93.16
13954;BME280;7049;49.444;8.522;2023-05-08T13:10:07;-11160.47;;;-3.47;93.26
13954;BME280;7049;49.444;8.522;2023-05-08T13:15:10;-11160.47;;;-3.47;92.65
13954;BME280;7049;49.444;8.522;2023-05-08T13:20:12;-11160.47;;;-3.47;91.83
13954;BME280;7049;49.444;8.522;2023-05-08T13:25:13;-11160.47;;;-3.47;91.12
13954;BME280;7049;49.444;8.522;2023-05-08T13:30:16;-11160.47;;;-3.47;90.88
13954;BME280;7049;49.444;8.522;2023-05-08T13:35:19;-11160.47;;;-3.47;90.45
13954;BME280;7049;49.444;8.522;2023-05-08T13:40:20;-11160.47;;;-3.47;89.77
13954;BME280;7049;49.444;8.522;2023-05-08T13:45:23;-11160.47;;;-3.47;89.63
13954;BME280;7049;49.444;8.522;2023-05-08T13:50:25;-11160.47;;;-3.47;89.55
13954;BME280;7049;49.444;8.522;2023-05-08T13:55:26;-11160.47;;;-3.47;88.93
13954;BME280;7049;49.444;8.522;2023-05-08T14:00:29;-11160.47;;;-3.47;88.98
13954;BME280;7049;49.444;8.522;2023-05-08T14:05:31;-11160.47;;;-3.47;89.55
13954;BME280;7049;49.444;8.522;2023-05-08T14:10:32;-11160.47;;;-3.47;90.54
13954;BME280;7049;49.444;8.522;2023-05-08T14:15:36;-11160.47;;;-3.47;91.33
13954;BME280;7049;49.444;8.522;2023-05-08T14:20:37;-11160.47;;;-3.47;91.91
13954;BME280;7049;49.444;8.522;2023-05-08T14:25:38;-11160.47;;;-3.47;92.31
13954;BME280;7049;49.444;8.522;2023-05-08T14:30:41;-11160.47;;;-3.47;92.39
13954;BME280;7049;49.444;8.522;2023-05-08T14:35:43;-11160.47;;;-3.47;92.89
13954;BME280;7049;49.444;8.522;2023-05-08T14:40:48;-11160.47;;;-3.47;93.41
13954;BME280;7049;49.444;8.522;2023-05-08T14:45:51;-11160.47;;;-3.47;93.50
13954;BME280;7049;49.444;8.522;2023-05-08T14:50:52;-11160.47;;;-3.47;92.53
13954;BME280;7049;49.444;8.522;2023-05-08T14:55:54;-11160.47;;;-3.47;93.09
13954;BME280;7049;49.444;8.522;2023-05-08T15:00:57;-11160.47;;;-3.47;92.89
13954;BME280;7049;49.444;8.522;2023-05-08T15:05:58;-11160.47;;;-3.47;92.61
13954;BME280;7049;49.444;8.522;2023-05-08T15:10:59;-11160.47;;;-3.47;91.24
13954;BME280;7049;49.444;8.522;2023-05-08T15:16:02;-11160.47;;;-3.47;88.24
13954;BME280;7049;49.444;8.522;2023-05-08T15:21:04;-11160.47;;;-3.47;85.96
13954;BME280;7049;49.444;8.522;2023-05-08T15:26:06;-11160.47;;;-3.47;85.56
13954;BME280;7049;49.444;8.522;2023-05-08T15:31:09;-11160.47;;;-3.47;85.88
13954;BME280;7049;49.444;8.522;2023-05-08T15:36:11;-11160.47;;;-3.47;85.84
13954;BME280;7049;49.444;8.522;2023-05-08T15:41:13;-11160.47;;;-3.47;83.75
13954;BME280;7049;49.444;8.522;2023-05-08T15:46:16;-11160.47;;;-3.47;82.65
13954;BME280;7049;49.444;8.522;2023-05-08T15:51:17;-11160.47;;;-3.47;83.63
13954;BME280;7049;49.444;8.522;2023-05-08T15:56:20;-11160.47;;;-3.47;81.58
13954;BME280;7049;49.444;8.522;2023-05-08T16:01:25;-11160.47;;;-3.47;82.28
13954;BME280;7049;49.444;8.522;2023-05-08T16:06:28;-11160.47;;;-3.47;81.84
13954;BME280;7049;49.444;8.522;2023-05-08T16:11:31;-11160.47;;;-3.47;80.99
13954;BME280;7049;49.444;8.522;2023-05-08T16:16:36;-11160.47;;;-3.47;81.15
13954;BME280;7049;49.444;8.522;2023-05-08T16:21:38;-11160.47;;;-3.47;82.90
13954;BME280;7049;49.444;8.522;2023-05-08T16:26:41;-11160.47;;;-3.47;80.59
13954;BME280;7049;49.444;8.522;2023-05-08T16:31:44;-11160.47;;;-3.47;81.36
13954;BME280;7049;49.444;8.522;2023-05-08T16:36:46;-11160.47;;;-3.47;82.11
13954;BME280;7049;49.444;8.522;2023-05-08T16:41:48;-11160.47;;;-3.47;80.27
13954;BME280;7049;49.444;8.522;2023-05-08T16:46:51;-11160.47;;;-3.47;80.24
13954;BME280;7049;49.444;8.522;2023-05-08T16:51:54;-11160.47;;;-3.47;79.68
13954;BME280;7049;49.444;8.522;2023-05-08T16:56:55;-11160.47;;;-3.47;78.98
13954;BME280;7049;49.444;8.522;2023-05-08T17:01:58;-11160.47;;;-3.47;78.50
13954;BME280;7049;49.444;8.522;2023-05-08T17:07:00;-11160.47;;;-3.47;78.86
13954;BME280;7049;49.444;8.522;2023-05-08T17:12:04;-11160.47;;;-3.47;79.18
13954;BME280;7049;49.444;8.522;2023-05-08T17:17:08;-11160.47;;;-3.47;79.71
13954;BME280;7049;49.444;8.522;2023-05-08T17:22:09;-11160.47;;;-3.47;80.13
13954;BME280;7049;49.444;8.522;2023-05-08T17:27:12;-11160.47;;;-3.47;80.29
13954;BME280;7049;49.444;8.522;2023-05-08T17:32:15;-11160.47;;;-3.47;80.24
13954;BME280;7049;49.444;8.522;2023-05-08T17:37:16;-11160.47;;;-3.47;80.68
13954;BME280;7049;49.444;8.522;2023-05-08T17:42:17;-11160.47;;;-3.47;80.97
13954;BME280;7049;49.444;8.522;2023-05-08T17:47:20;-11160.47;;;-3.47;81.08
13954;BME280;7049;49.444;8.522;2023-05-08T17:52:21;-11160.47;;;-3.47;81.26
13954;BME280;7049;49.444;8.522;2023-05-08T17:57:23;-11160.47;;;-3.47;81.71
13954;BME280;7049;49.444;8.522;2023-05-08T18:02:26;-11160.47;;;-3.47;82.26
13954;BME280;7049;49.444;8.522;2023-05-08T18:07:27;-11160.47;;;-3.47;82.98
13954;BME280;7049;49.444;8.522;2023-05-08T18:12:30;-11160.47;;;-3.47;83.80
13954;BME280;7049;49.444;8.522;2023-05-08T18:17:33;-11160.47;;;-3.47;84.26
13954;BME280;7049;49.444;8.522;2023-05-08T18:22:34;-11160.47;;;-3.47;84.95
13954;BME280;7049;49.444;8.522;2023-05-08T18:27:36;-11160.47;;;-3.47;86.02
13954;BME280;7049;49.444;8.522;2023-05-08T18:32:38;-11160.47;;;-3.47;86.69
13954;BME280;7049;49.444;8.522;2023-05-08T18:37:40;-11160.47;;;-3.47;87.76
13954;BME280;7049;49.444;8.522;2023-05-08T18:42:42;-11160.47;;;-3.47;88.75
13954;BME280;7049;49.444;8.522;2023-05-08T18:47:45;-11160.47;;;-3.47;89.51
13954;BME280;7049;49.444;8.522;2023-05-08T18:52:47;-11160.47;;;-3.47;89.86
13954;BME280;7049;49.444;8.522;2023-05-08T18:57:48;-11160.47;;;-3.47;90.51
13954;BME280;7049;49.444;8.522;2023-05-08T19:02:51;-11160.47;;;-3.47;91.04
13954;BME280;7049;49.444;8.522;2023-05-08T19:07:52;-11160.47;;;-3.47;91.71
13954;BME280;7049;49.444;8.522;2023-05-08T19:12:54;-11160.47;;;-3.47;92.36
13954;BME280;7049;49.444;8.522;2023-05-08T19:17:56;-11160.47;;;-3.47;92.76
13954;BME280;7049;49.444;8.522;2023-05-08T19:22:58;-11160.47;;;-3.47;93.42
13954;BME280;7049;49.444;8.522;2023-05-08T19:27:59;-11160.47;;;-3.47;94.18
13954;BME280;7049;49.444;8.522;2023-05-08T19:33:04;-11160.47;;;-3.47;94.89
13954;BME280;7049;49.444;8.522;2023-05-08T19:38:06;-11160.47;;;-3.47;95.24
13954;BME280;7049;49.444;8.522;2023-05-08T19:43:07;-11160.47;;;-3.47;95.80
13954;BME280;7049;49.444;8.522;2023-05-08T19:48:10;-11160.47;;;-3.47;96.31
13954;BME280;7049;49.444;8.522;2023-05-08T19:53:11;-11160.47;;;-3.47;96.70
13954;BME280;7049;49.444;8.522;2023-05-08T19:58:13;-11160.47;;;-3.47;97.04
13954;BME280;7049;49.444;8.522;2023-05-08T20:03:18;-11160.47;;;-3.47;97.25
13954;BME280;7049;49.444;8.522;2023-05-08T20:08:19;-11160.47;;;-3.47;97.62
13954;BME280;7049;49.444;8.522;2023-05-08T20:13:21;-11160.47;;;-3.47;97.99
13954;BME280;7049;49.444;8.522;2023-05-08T20:18:24;-11160.47;;;-3.47;98.16
13954;BME280;7049;49.444;8.522;2023-05-08T20:23:26;-11160.47;;;-3.47;98.19
13954;BME280;7049;49.444;8.522;2023-05-08T20:28:27;-11160.47;;;-3.47;98.35
13954;BME280;7049;49.444;8.522;2023-05-08T20:33:30;-11160.47;;;-3.47;98.45
13954;BME280;7049;49.444;8.522;2023-05-08T20:38:32;-11160.47;;;-3.47;98.60
13954;BME280;7049;49.444;8.522;2023-05-08T20:43:35;-11160.47;;;-3.47;98.77
13954;BME280;7049;49.444;8.522;2023-05-08T20:48:38;-11160.47;;;-3.47;98.86
13954;BME280;7049;49.444;8.522;2023-05-08T20:53:39;-11160.47;;;-3.47;99.10
13954;BME280;7049;49.444;8.522;2023-05-08T20:58:41;-11160.47;;;-3.47;99.14
13954;BME280;7049;49.444;8.522;2023-05-08T21:03:44;-11160.47;;;-3.47;99.16
13954;BME280;7049;49.444;8.522;2023-05-08T21:08:45;-11160.47;;;-3.47;99.31
13954;BME280;7049;49.444;8.522;2023-05-08T21:13:46;-11160.47;;;-3.47;99.46
13954;BME280;7049;49.444;8.522;2023-05-08T21:18:49;-11160.47;;;-3.47;99.46
13954;BME280;7049;49.444;8.522;2023-05-08T21:23:51;-11160.47;;;-3.47;99.36
13954;BME280;7049;49.444;8.522;2023-05-08T21:28:52;-11160.47;;;-3.47;99.47
13954;BME280;7049;49.444;8.522;2023-05-08T21:33:55;-11160.47;;;-3.47;99.77
13954;BME280;7049;49.444;8.522;2023-05-08T21:38:56;-11160.47;;;-3.47;99.98
13954;BME280;7049;49.444;8.522;2023-05-08T21:43:58;-11160.47;;;-3.47;100.00
13954;BME280;7049;49.444;8.522;2023-05-08T21:49:00;-11160.47;;;-3.47;100.00
13954;BME280;7049;49.444;8.522;2023-05-08T21:54:02;-11160.47;;;-3.47;100.00
13954;BME280;7049;49.444;8.522;2023-05-08T21:59:04;-11160.47;;;-3.47;100.00
13954;BME280;7049;49.444;8.522;2023-05-08T22:04:06;-11160.47;;;-3.47;100.00
13954;BME280;7049;49.444;8.522;2023-05-08T22:09:08;-11160.47;;;-3.47;100.00
13954;BME280;7049;49.444;8.522;2023-05-08T22:14:09;-11160.47;;;-3.47;100.00
13954;BME280;7049;49.444;8.522;2023-05-08T22:19:12;-11160.47;;;-3.47;100.00
13954;BME280;7049;49.444;8.522;2023-05-08T22:24:14;-11160.47;;;-3.47;100.00
13954;BME280;7049;49.444;8.522;2023-05-08T22:29:18;-11160.47;;;-3.47;100.00
13954;BME280;7049;49.444;8.522;2023-05-08T22:34:20;-11160.47;;;-3.47;100.00
13954;BME280;7049;49.444;8.522;2023-05-08T22:39:22;-11160.47;;;-3.47;100.00
13954;BME280;7049;49.444;8.522;2023-05-08T22:44:23;-11160.47;;;-3.47;100.00
13954;BME280;7049;49.444;8.522;2023-05-08T22:49:26;-11160.47;;;-3.47;100.00
13954;BME280;7049;49.444;8.522;2023-05-08T22:54:28;-11160.47;;;-3.47;100.00
13954;BME280;7049;49.444;8.522;2023-05-08T22:59:29;-11160.47;;;-3.47;100.00
13954;BME280;7049;49.444;8.522;2023-05-08T23:04:32;-11160.47;;;-3.47;100.00
13954;BME280;7049;49.444;8.522;2023-05-08T23:09:34;-11160.47;;;-3.47;100.00
13954;BME280;7049;49.444;8.522;2023-05-08T23:14:35;-11160.47;;;-3.47;100.00
13954;BME280;7049;49.444;8.522;2023-05-08T23:19:40;-11160.47;;;-3.47;100.00
13954;BME280;7049;49.444;8.522;2023-05-08T23:24:42;-11160.47;;;-3.47;100.00
13954;BME280;7049;49.444;8.522;2023-05-08T23:29:43;-11160.47;;;-3.47;100.00
13954;BME280;7049;49.444;8.522;2023-05-08T23:34:46;-11160.47;;;-3.47;100.00
13954;BME280;7049;49.444;8.522;2023-05-08T23:39:47;-11160.47;;;-3.47;100.00
13954;BME280;7049;49.444;8.522;2023-05-08T23:44:49;-11160.47;;;-3.47;100.00
13954;BME280;7049;49.444;8.522;2023-05-08T23:49:51;-11160.47;;;-3.47;100.00
13954;BME280;7049;49.444;8.522;2023-05-08T23:54:53;-11160.47;;;-3.47;100.00
13954;BME280;7049;49.444;8.522;2023-05-08T23:59:54;-11160.47;;;-3.47;100.00
